PATC/TNC METAR and TAF weather

Enter ICAO airport designator
Station Type Date Time Source
PATC METAR 2019/10/22 16:55 UTC NOAA

PATC 221655Z 03014KT 10SM FEW041 M03/M05 A2981 RMK AO2A SLP100


Station Type Date Time Source
PATC Decoded METAR 2019/10/22 16:55 UTC NOAA

Tin City Airways Facilities Sector, AK, United States (PATC) 65-34N 167-55W
Oct 22, 2019 - 12:55 PM EDT / 2019.10.22 1655 UTC
Wind: from the NNE (030 degrees) at 16 MPH (14 KT):0
Visibility: 10 mile(s):0
Sky conditions: mostly clear
Temperature: 26 F (-3 C)
Windchill: 14 F (-10 C):1
Dew Point: 23 F (-5 C)
Relative Humidity: 86%
Pressure (altimeter): 29.81 in. Hg (1009 hPa)
ob: PATC 221655Z 03014KT 10SM FEW041 M03/M05 A2981 RMK AO2A SLP100
cycle: 17

Station Type Date Time Source
PATC TAF 2016/08/27 04:12 UTC NOAA

TAF PATC 270400Z 2704/2810 18012G18KT 0400 FG OVC002 QNH3015INS TX10/2718Z TN06/2710Z

Example: see airport list